Time;durP1;ratioP1;P1;durP2;ratioP2;P2;SDS_P1;SDS_P2;PMS_P1;PMS_P2;Temp;Humidity;BMP_temperature;BMP_pressure;BME280_temperature;BME280_humidity;BME280_pressure;Samples;Min_cycle;Max_cycle;Signal;HPM_P1;HPM_P2
2022/12/03 00:01:32;;;;;;;14.55;11.57;;;;;;;;;;5126458;28;20050;-57
2022/12/03 00:04:25;;;;;;;15.27;11.40;;;;;;;;;;5129270;28;20034;-57
2022/12/03 00:10:18;;;;;;;14.13;10.13;;;;;;;;;;5122696;28;20038;-57
2022/12/03 00:12:53;;;;;;;15.45;12.00;;;;;;;;;;5133086;28;20023;-57
2022/12/03 00:15:50;;;;;;;15.45;10.85;;;;;;;;;;5132532;28;20035;-57
2022/12/03 00:21:43;;;;;;;15.45;11.85;;;;;;;;;;5121718;28;20043;-57
2022/12/03 00:30:28;;;;;;;;;;;;;;;;;;;;;
2022/12/03 00:33:00;;;;;;;13.57;12.23;;;;;;;;;;5070333;28;20060;-57
2022/12/03 00:35:39;;;;;;;14.82;10.77;;;;;;;;;;5053090;28;20100;-57
2022/12/03 00:38:20;;;;;;;14.98;12.63;;;;;;;;;;5053146;28;20044;-56
2022/12/03 00:41:04;;;;;;;11.15;9.18;;;;;;;;;;5069749;28;20486;-57
2022/12/03 00:43:47;;;;;;;18.08;11.70;;;;;;;;;;5070193;28;20364;-57
2022/12/03 00:49:56;;;;;;;12.13;9.63;;;;;;;;;;5066190;28;20092;-56
2022/12/03 00:52:33;;;;;;;18.48;11.30;;;;;;;;;;5069313;28;20041;-57
2022/12/03 01:00:51;;;;;;;15.40;13.63;;;;;;;;;;5070230;28;20038;-57
2022/12/03 01:03:17;;;;;;;20.13;11.38;;;;;;;;;;5132708;28;20098;-57
2022/12/03 01:05:53;;;;;;;13.90;10.60;;;;;;;;;;5126602;28;20038;-57
2022/12/03 01:08:35;;;;;;;14.48;11.70;;;;;;;;;;5132595;28;20031;-57
2022/12/03 01:11:36;;;;;;;16.83;11.13;;;;;;;;;;5132427;28;20031;-56
2022/12/03 01:17:01;;;;;;;17.65;12.27;;;;;;;;;;5124610;28;20054;-57
2022/12/03 01:20:02;;;;;;;;;;;;;;;;;;;;;
2022/12/03 01:23:09;;;;;;;11.98;8.93;;;;;;;;;;5128365;28;20054;-57
2022/12/03 01:25:37;;;;;;;12.23;10.98;;;;;;;;;;5029136;28;20530;-57
2022/12/03 01:28:09;;;;;;;19.42;14.05;;;;;;;;;;5029406;28;20022;-57
2022/12/03 01:33:54;;;;;;;13.02;11.68;;;;;;;;;;5029882;28;20070;-57
2022/12/03 01:36:40;;;;;;;14.68;12.30;;;;;;;;;;5029117;28;20022;-56
2022/12/03 01:39:22;;;;;;;17.85;12.70;;;;;;;;;;4998062;28;20030;-57
2022/12/03 01:42:17;;;;;;;13.70;9.50;;;;;;;;;;5012522;28;20052;-57
2022/12/03 01:45:20;;;;;;;17.45;12.63;;;;;;;;;;5029147;28;20022;-56
2022/12/03 01:51:31;;;;;;;14.13;10.50;;;;;;;;;;5011489;28;20112;-57
2022/12/03 01:57:06;;;;;;;10.95;9.77;;;;;;;;;;5047471;28;20057;-58
2022/12/03 01:59:44;;;;;;;11.50;9.75;;;;;;;;;;5048471;28;20037;-57
2022/12/03 02:02:36;;;;;;;14.80;12.10;;;;;;;;;;5048789;28;20076;-57
2022/12/03 02:05:21;;;;;;;11.85;9.45;;;;;;;;;;5048288;28;20096;-57
2022/12/03 02:08:08;;;;;;;13.75;10.35;;;;;;;;;;5084002;28;20051;-57
2022/12/03 02:13:34;;;;;;;15.15;10.57;;;;;;;;;;5086414;28;20036;-57
2022/12/03 02:16:22;;;;;;;14.25;9.07;;;;;;;;;;5108694;28;20028;-58
2022/12/03 02:21:54;;;;;;;12.67;10.67;;;;;;;;;;5130791;28;20057;-58
2022/12/03 02:28:31;;;;;;;;;;;;;;;;;;5088047;28;20049;-57
2022/12/03 02:31:04;;;;;;;;;;;;;;;;;;;;;
2022/12/03 02:33:25;;;;;;;17.00;11.27;;;;;;;;;;5127852;28;20028;-57
2022/12/03 02:36:23;;;;;;;13.48;10.98;;;;;;;;;;5112063;28;20043;-57
2022/12/03 02:39:08;;;;;;;12.90;9.88;;;;;;;;;;5130776;28;20030;-57
2022/12/03 02:48:28;;;;;;;14.43;9.65;;;;;;;;;;5104282;28;20032;-57
2022/12/03 03:00:06;;;;;;;12.90;9.95;;;;;;;;;;5130367;28;20031;-57
2022/12/03 03:06:22;;;;;;;11.05;9.23;;;;;;;;;;5067419;28;20112;-57
2022/12/03 03:12:30;;;;;;;9.90;9.00;;;;;;;;;;5119264;28;20035;-57
2022/12/03 03:24:39;;;;;;;13.10;10.68;;;;;;;;;;5077904;28;20036;-57
2022/12/03 03:33:04;;;;;;;14.65;11.13;;;;;;;;;;5115022;28;20031;-57
2022/12/03 03:35:30;;;;;;;17.92;11.35;;;;;;;;;;5077630;28;20039;-57
2022/12/03 03:41:30;;;;;;;14.45;9.75;;;;;;;;;;5103711;28;20083;-56
2022/12/03 03:44:06;;;;;;;11.63;8.17;;;;;;;;;;5127212;28;20046;-57
2022/12/03 03:49:56;;;;;;;12.55;10.38;;;;;;;;;;5129552;28;20031;-57
2022/12/03 03:55:35;;;;;;;13.02;11.05;;;;;;;;;;5129990;28;20031;-57
2022/12/03 04:01:10;;;;;;;17.15;10.60;;;;;;;;;;5121689;28;20042;-55
2022/12/03 04:03:49;;;;;;;11.77;9.68;;;;;;;;;;5130208;28;20038;-57
2022/12/03 04:06:26;;;;;;;12.68;10.50;;;;;;;;;;5111965;28;20020;-56
2022/12/03 04:09:15;;;;;;;14.68;11.57;;;;;;;;;;5129121;28;20031;-57
2022/12/03 04:20:30;;;;;;;13.55;9.57;;;;;;;;;;5115105;28;20469;-56
2022/12/03 04:23:20;;;;;;;14.90;9.88;;;;;;;;;;5119984;28;20051;-59
2022/12/03 04:37:52;;;;;;;19.55;12.32;;;;;;;;;;5128751;28;20539;-57
2022/12/03 04:47:00;;;;;;;13.52;9.27;;;;;;;;;;5124915;28;20111;-57
2022/12/03 04:49:51;;;;;;;18.77;11.40;;;;;;;;;;5129040;28;20052;-56
2022/12/03 04:52:51;;;;;;;17.55;11.88;;;;;;;;;;5128940;28;20046;-57
2022/12/03 04:58:16;;;;;;;14.32;10.15;;;;;;;;;;5131925;28;20057;-57
2022/12/03 05:03:53;;;;;;;15.45;9.95;;;;;;;;;;5132606;28;20084;-57
2022/12/03 05:06:39;;;;;;;14.00;11.18;;;;;;;;;;5133000;28;20036;-57
2022/12/03 05:09:21;;;;;;;;;;;;;;;;;;;;;
2022/12/03 05:12:04;;;;;;;17.33;11.52;;;;;;;;;;5132430;28;20070;-57
2022/12/03 05:15:05;;;;;;;15.10;12.05;;;;;;;;;;5132912;28;20028;-57
2022/12/03 05:17:55;;;;;;;12.32;10.93;;;;;;;;;;5132538;28;20023;-57
2022/12/03 05:33:14;;;;;;;16.77;11.38;;;;;;;;;;5115879;28;20381;-56
2022/12/03 05:35:53;;;;;;;17.02;10.68;;;;;;;;;;5117225;28;20541;-55
2022/12/03 05:38:57;;;;;;;18.33;12.00;;;;;;;;;;5117778;28;20019;-57
2022/12/03 05:44:37;;;;;;;17.50;10.70;;;;;;;;;;5118033;28;20092;-56
2022/12/03 05:47:39;;;;;;;14.48;11.05;;;;;;;;;;5117952;28;20016;-57
2022/12/03 05:50:37;;;;;;;;;;;;;;;;;;;;;
2022/12/03 05:53:37;;;;;;;14.70;11.48;;;;;;;;;;5118001;28;20533;-57
2022/12/03 05:56:29;;;;;;;13.33;11.40;;;;;;;;;;5105600;28;20032;-56
2022/12/03 05:59:26;;;;;;;18.63;12.57;;;;;;;;;;5097946;28;20778;-55
2022/12/03 06:05:31;;;;;;;9.73;8.52;;;;;;;;;;5096153;28;20520;-57
2022/12/03 06:11:26;;;;;;;14.32;11.52;;;;;;;;;;5014123;28;20118;-56
2022/12/03 06:14:36;;;;;;;;;;;;;;;;;;;;;
2022/12/03 06:17:24;;;;;;;;;;;;;;;;;;;;;
2022/12/03 06:20:20;;;;;;;9.07;8.05;;;;;;;;;;5096892;28;20028;-57
2022/12/03 06:23:09;;;;;;;13.13;11.45;;;;;;;;;;5069982;28;20032;-56
2022/12/03 06:28:57;;;;;;;15.10;10.80;;;;;;;;;;5081825;28;20040;-57
2022/12/03 06:32:04;;;;;;;12.75;10.60;;;;;;;;;;5095485;28;20039;-57
2022/12/03 06:35:03;;;;;;;16.37;12.10;;;;;;;;;;5096449;28;20028;-57
2022/12/03 06:37:42;;;;;;;16.40;9.68;;;;;;;;;;5095589;28;20050;-57
2022/12/03 06:40:49;;;;;;;13.75;11.45;;;;;;;;;;5078251;28;20039;-55
2022/12/03 06:52:30;;;;;;;11.95;10.60;;;;;;;;;;5068636;28;20036;-56
2022/12/03 06:54:59;;;;;;;19.95;10.65;;;;;;;;;;5053101;28;20036;-57
2022/12/03 06:57:56;;;;;;;17.80;11.98;;;;;;;;;;5052927;28;20033;-57
2022/12/03 07:00:31;;;;;;;12.75;9.02;;;;;;;;;;5069251;28;20379;-57
2022/12/03 07:09:09;;;;;;;15.05;10.23;;;;;;;;;;5077652;28;20077;-57
2022/12/03 07:12:02;;;;;;;13.65;10.88;;;;;;;;;;5076682;28;20066;-57
2022/12/03 07:14:49;;;;;;;14.77;9.57;;;;;;;;;;5063237;28;20111;-57
2022/12/03 07:20:33;;;;;;;19.58;11.75;;;;;;;;;;5092605;28;20504;-56
2022/12/03 07:23:22;;;;;;;14.40;10.70;;;;;;;;;;5093893;28;20111;-55
2022/12/03 07:26:13;;;;;;;13.15;9.48;;;;;;;;;;5102449;28;20520;-55
2022/12/03 07:28:42;;;;;;;;;;;;;;;;;;5116317;28;20019;-56
2022/12/03 07:34:53;;;;;;;;;;;;;;;;;;;;;
2022/12/03 07:43:43;;;;;;;14.68;13.20;;;;;;;;;;5065882;28;20090;-54
2022/12/03 07:46:39;;;;;;;16.02;11.23;;;;;;;;;;5072993;28;20029;-57
2022/12/03 07:49:35;;;;;;;19.43;14.27;;;;;;;;;;5107747;28;20084;-57
2022/12/03 07:52:18;;;;;;;19.52;14.00;;;;;;;;;;5114989;28;20027;-57
2022/12/03 07:55:04;;;;;;;20.40;13.33;;;;;;;;;;5115155;28;20408;-57
2022/12/03 07:57:50;;;;;;;19.60;14.20;;;;;;;;;;5115447;28;20028;-58
2022/12/03 08:03:23;;;;;;;17.33;12.15;;;;;;;;;;5115404;28;20039;-57
2022/12/03 08:06:03;;;;;;;23.05;13.60;;;;;;;;;;5115788;28;20032;-57
2022/12/03 08:08:46;;;;;;;19.40;11.75;;;;;;;;;;5116067;28;20402;-58
2022/12/03 08:17:49;;;;;;;26.27;13.05;;;;;;;;;;5107554;28;20428;-56
2022/12/03 08:21:01;;;;;;;18.60;13.77;;;;;;;;;;5102640;28;20059;-57
2022/12/03 08:23:42;;;;;;;18.95;12.82;;;;;;;;;;5015228;28;20059;-56
2022/12/03 08:26:43;;;;;;;22.83;10.67;;;;;;;;;;5033340;28;20029;-59
2022/12/03 08:29:35;;;;;;;;;;;;;;;;;;;;;
2022/12/03 08:38:20;;;;;;;21.83;15.40;;;;;;;;;;5106995;28;20038;-58
2022/12/03 08:40:59;;;;;;;14.98;12.45;;;;;;;;;;5097858;28;20084;-58
2022/12/03 08:43:56;;;;;;;18.02;12.38;;;;;;;;;;5099821;28;20567;-57
2022/12/03 08:46:54;;;;;;;;;;;;;;;;;;;;;
2022/12/03 08:50:02;;;;;;;20.10;12.65;;;;;;;;;;5114622;28;20044;-56
2022/12/03 08:52:57;;;;;;;21.90;14.93;;;;;;;;;;5116533;28;20042;-54
2022/12/03 08:58:56;;;;;;;20.10;13.75;;;;;;;;;;5094160;28;20077;-54
2022/12/03 09:01:41;;;;;;;15.33;13.73;;;;;;;;;;5117830;28;20378;-53
2022/12/03 09:10:38;;;;;;;17.90;14.17;;;;;;;;;;5034581;28;20040;-52
2022/12/03 09:16:35;;;;;;;21.97;14.17;;;;;;;;;;5015304;28;20026;-56
2022/12/03 09:19:17;;;;;;;18.45;13.63;;;;;;;;;;5016001;28;20054;-54
2022/12/03 09:25:28;;;;;;;13.33;10.13;;;;;;;;;;4956208;28;20433;-55
2022/12/03 09:28:31;;;;;;;14.13;10.37;;;;;;;;;;4956919;29;20078;-55
2022/12/03 09:31:40;;;;;;;;;;;;;;;;;;;;;
2022/12/03 09:34:21;;;;;;;20.33;11.80;;;;;;;;;;4977243;28;20104;-55
2022/12/03 09:36:49;;;;;;;;;;;;;;;;;;5018024;28;20115;-55
2022/12/03 09:39:40;;;;;;;23.00;12.87;;;;;;;;;;5032590;28;19905;-55
2022/12/03 09:42:15;;;;;;;16.83;11.52;;;;;;;;;;5033870;28;20029;-56
2022/12/03 09:48:11;;;;;;;19.77;14.40;;;;;;;;;;5030956;28;20030;-55
2022/12/03 09:50:45;;;;;;;13.67;12.30;;;;;;;;;;5035173;28;20045;-56
2022/12/03 09:53:22;;;;;;;18.53;11.43;;;;;;;;;;5034877;28;20209;-56
2022/12/03 09:55:54;;;;;;;13.27;11.47;;;;;;;;;;5034430;28;20430;-56
2022/12/03 10:01:59;;;;;;;16.40;11.03;;;;;;;;;;5101963;28;20523;-53
2022/12/03 10:10:50;;;;;;;19.02;12.13;;;;;;;;;;5097172;28;20031;-54
2022/12/03 10:13:45;;;;;;;13.73;9.13;;;;;;;;;;5072638;28;20036;-54
2022/12/03 10:16:32;;;;;;;15.43;10.53;;;;;;;;;;5031747;28;20060;-57
2022/12/03 10:19:23;;;;;;;17.25;11.07;;;;;;;;;;5096783;28;20081;-57
2022/12/03 10:22:24;;;;;;;15.93;11.18;;;;;;;;;;5096444;28;20024;-57
2022/12/03 10:25:27;;;;;;;16.27;12.77;;;;;;;;;;4998177;28;20515;-57
2022/12/03 10:28:00;;;;;;;12.43;9.87;;;;;;;;;;4980221;28;20076;-57
2022/12/03 10:30:49;;;;;;;;;;;;;;;;;;;;;
2022/12/03 10:37:00;;;;;;;22.67;12.57;;;;;;;;;;5081447;28;20450;-54
2022/12/03 10:45:19;;;;;;;15.23;12.30;;;;;;;;;;5039838;28;20032;-54
2022/12/03 10:48:18;;;;;;;14.03;10.30;;;;;;;;;;5096182;28;20569;-56
2022/12/03 10:51:10;;;;;;;13.05;10.85;;;;;;;;;;5076898;28;20127;-56
2022/12/03 10:56:43;;;;;;;17.03;12.90;;;;;;;;;;5053079;28;20084;-56
2022/12/03 10:59:36;;;;;;;15.90;11.17;;;;;;;;;;5053538;28;20526;-54
2022/12/03 11:02:27;;;;;;;10.70;9.47;;;;;;;;;;5045685;28;20076;-54
2022/12/03 11:04:52;;;;;;;;;;;;;;;;;;5028934;28;20033;-53
2022/12/03 11:10:38;;;;;;;;;;;;;;;;;;5050571;28;20021;-55
2022/12/03 11:13:32;;;;;;;15.30;10.97;;;;;;;;;;5056237;28;19973;-56
2022/12/03 11:16:13;;;;;;;14.60;11.73;;;;;;;;;;5072648;28;20489;-51
2022/12/03 11:19:21;;;;;;;;;;;;;;;;;;;;;
2022/12/03 11:22:15;;;;;;;13.77;9.20;;;;;;;;;;5072663;28;20024;-53
2022/12/03 11:25:17;;;;;;;14.87;8.17;;;;;;;;;;5062798;28;20033;-54
2022/12/03 11:28:23;;;;;;;11.00;8.30;;;;;;;;;;5012569;28;20030;-55
2022/12/03 11:30:52;;;;;;;13.68;8.57;;;;;;;;;;5018566;28;20053;-54
2022/12/03 11:37:00;;;;;;;;;;;;;;;;;;;;;
2022/12/03 11:39:44;;;;;;;;;;;;;;;;;;5008059;28;20045;-55
2022/12/03 11:45:42;;;;;;;14.45;10.40;;;;;;;;;;5072329;28;20090;-53
2022/12/03 11:51:29;;;;;;;12.30;10.77;;;;;;;;;;5067267;28;20070;-53
2022/12/03 11:54:02;;;;;;;13.77;9.80;;;;;;;;;;5072764;28;20436;-55
2022/12/03 12:00:03;;;;;;;10.63;8.50;;;;;;;;;;5062219;28;20027;-53
2022/12/03 12:03:09;;;;;;;12.57;9.47;;;;;;;;;;5088422;28;20108;-51
2022/12/03 12:06:00;;;;;;;11.27;9.67;;;;;;;;;;5095693;28;20119;-53
2022/12/03 12:08:35;;;;;;;12.65;10.30;;;;;;;;;;5114934;28;20028;-55
2022/12/03 12:11:32;;;;;;;13.63;9.10;;;;;;;;;;5115740;28;20035;-55
2022/12/03 12:14:06;;;;;;;12.67;8.07;;;;;;;;;;5095835;28;20145;-55
2022/12/03 12:19:57;;;;;;;14.90;10.43;;;;;;;;;;5115320;28;20043;-55
2022/12/03 12:22:32;;;;;;;16.03;9.33;;;;;;;;;;5113465;28;20070;-51
2022/12/03 12:25:10;;;;;;;13.40;10.93;;;;;;;;;;5096025;28;20028;-54
2022/12/03 12:28:02;;;;;;;;;;;;;;;;;;;;;
2022/12/03 12:30:38;;;;;;;14.27;10.40;;;;;;;;;;5103878;28;20114;-53
2022/12/03 12:36:36;;;;;;;;;;;;;;;;;;;;;
2022/12/03 12:39:43;;;;;;;11.30;9.37;;;;;;;;;;4950294;28;20040;-53
2022/12/03 12:42:28;;;;;;;11.80;7.90;;;;;;;;;;4968753;28;20041;-54
2022/12/03 12:48:17;;;;;;;15.80;11.37;;;;;;;;;;5051699;28;20032;-53
2022/12/03 12:51:12;;;;;;;10.52;7.57;;;;;;;;;;5050862;28;20461;-52
2022/12/03 12:53:55;;;;;;;;;;;;;;;;;;;;;
2022/12/03 12:56:50;;;;;;;9.47;7.30;;;;;;;;;;5062609;28;20035;-53
2022/12/03 13:00:03;;;;;;;13.87;10.47;;;;;;;;;;5101746;28;20377;-54
2022/12/03 13:02:19;;;;;;;;;;;;;;;;;;5102114;28;20051;-52
2022/12/03 13:05:15;;;;;;;7.07;4.13;;;;;;;;;;5095398;28;20341;-55
2022/12/03 13:08:11;;;;;;;19.53;9.70;;;;;;;;;;5113667;28;20042;-55
2022/12/03 13:13:42;;;;;;;15.97;7.67;;;;;;;;;;5102885;28;20108;-54
2022/12/03 13:16:30;;;;;;;12.37;9.27;;;;;;;;;;5114543;28;20031;-56
2022/12/03 13:19:23;;;;;;;15.27;10.23;;;;;;;;;;5118648;28;20390;-54
2022/12/03 13:22:08;;;;;;;15.30;9.53;;;;;;;;;;5117781;28;20362;-55
2022/12/03 13:31:30;;;;;;;14.60;9.10;;;;;;;;;;5098981;28;20039;-55
2022/12/03 13:34:20;;;;;;;18.80;13.07;;;;;;;;;;5118403;28;20019;-55
2022/12/03 13:39:34;;;;;;;15.23;9.80;;;;;;;;;;5116847;28;20114;-56
2022/12/03 13:48:52;;;;;;;14.27;11.50;;;;;;;;;;5075683;28;20088;-55
2022/12/03 13:51:47;;;;;;;13.77;9.67;;;;;;;;;;5116677;28;20451;-56
2022/12/03 13:55:05;;;;;;;17.27;11.93;;;;;;;;;;5117822;28;20051;-57
2022/12/03 13:57:34;;;;;;;;;;;;;;;;;;;;;
2022/12/03 14:03:14;;;;;;;13.02;10.52;;;;;;;;;;5117317;28;20039;-54
2022/12/03 14:14:33;;;;;;;15.57;9.20;;;;;;;;;;5117135;28;20055;-55
2022/12/03 14:17:08;;;;;;;12.10;9.17;;;;;;;;;;5117289;28;20047;-54
2022/12/03 14:19:40;;;;;;;13.57;8.80;;;;;;;;;;5117530;28;20035;-55
2022/12/03 14:22:38;;;;;;;15.13;9.60;;;;;;;;;;5054356;28;20033;-51
2022/12/03 14:25:21;;;;;;;9.33;7.57;;;;;;;;;;5053411;28;20417;-56
2022/12/03 14:28:21;;;;;;;10.57;7.43;;;;;;;;;;5054801;28;20062;-54
2022/12/03 14:31:10;;;;;;;14.53;9.63;;;;;;;;;;5054251;28;20078;-55
2022/12/03 14:33:51;;;;;;;14.53;9.47;;;;;;;;;;5033982;28;20037;-56
2022/12/03 14:36:44;;;;;;;17.30;8.70;;;;;;;;;;5054786;28;20060;-56
2022/12/03 14:39:24;;;;;;;10.57;9.23;;;;;;;;;;5053919;28;20036;-54
2022/12/03 14:45:03;;;;;;;14.77;9.77;;;;;;;;;;5054624;28;20040;-56
2022/12/03 14:47:56;;;;;;;10.33;8.53;;;;;;;;;;5059083;28;20466;-53
2022/12/03 14:50:49;;;;;;;15.03;8.77;;;;;;;;;;5052399;28;20028;-56
2022/12/03 14:53:20;;;;;;;23.57;14.77;;;;;;;;;;5088368;28;20048;-54
2022/12/03 14:56:34;;;;;;;;;;;;;;;;;;;;;
2022/12/03 14:59:22;;;;;;;8.77;6.90;;;;;;;;;;5110577;28;20097;-56
2022/12/03 15:08:11;;;;;;;15.50;9.50;;;;;;;;;;5115621;28;20034;-55
2022/12/03 15:10:46;;;;;;;22.90;11.50;;;;;;;;;;5115317;28;20027;-55
2022/12/03 15:13:40;;;;;;;13.73;10.57;;;;;;;;;;5115846;28;20054;-54
2022/12/03 15:16:07;;;;;;;15.43;10.10;;;;;;;;;;5108656;28;20070;-54
2022/12/03 15:21:53;;;;;;;18.30;9.40;;;;;;;;;;5106610;28;20028;-55
2022/12/03 15:24:27;;;;;;;12.13;9.93;;;;;;;;;;5107636;28;20035;-55
2022/12/03 15:27:11;;;;;;;9.03;8.13;;;;;;;;;;5115993;28;20067;-55
2022/12/03 15:29:56;;;;;;;12.30;8.93;;;;;;;;;;5115508;28;20110;-53
2022/12/03 15:32:38;;;;;;;41.03;30.43;;;;;;;;;;5097703;28;20092;-54
2022/12/03 15:38:44;;;;;;;17.13;12.30;;;;;;;;;;5115197;28;20031;-52
2022/12/03 15:44:19;;;;;;;16.20;11.77;;;;;;;;;;5115188;28;20518;-55
2022/12/03 15:47:08;;;;;;;12.47;11.30;;;;;;;;;;5115661;28;20137;-53
2022/12/03 15:49:43;;;;;;;15.67;10.17;;;;;;;;;;5114796;28;20027;-53
2022/12/03 15:52:28;;;;;;;8.63;7.50;;;;;;;;;;5115096;28;20028;-55
2022/12/03 15:55:28;;;;;;;13.13;8.33;;;;;;;;;;5113287;28;20036;-53
2022/12/03 16:01:05;;;;;;;11.57;7.50;;;;;;;;;;5111049;28;20093;-52
2022/12/03 16:04:07;;;;;;;;;;;;;;;;;;;;;
2022/12/03 16:06:36;;;;;;;11.20;8.67;;;;;;;;;;5115179;28;20123;-56
2022/12/03 16:09:31;;;;;;;14.97;8.97;;;;;;;;;;5103814;28;20028;-55
2022/12/03 16:12:19;;;;;;;12.17;8.10;;;;;;;;;;5096527;28;20039;-51
2022/12/03 16:15:14;;;;;;;10.43;8.07;;;;;;;;;;5115457;28;20432;-51
2022/12/03 16:20:52;;;;;;;;;;;;;;;;;;5097213;28;20042;-54
2022/12/03 16:23:44;;;;;;;;;;;;;;;;;;;;;
2022/12/03 16:26:19;;;;;;;14.17;7.50;;;;;;;;;;5107775;28;20377;-52
2022/12/03 16:29:03;;;;;;;15.53;11.13;;;;;;;;;;5097918;28;20023;-53
2022/12/03 16:31:35;;;;;;;12.97;9.40;;;;;;;;;;5114685;28;20144;-54
2022/12/03 16:34:22;;;;;;;18.27;10.17;;;;;;;;;;5112653;28;20408;-54
2022/12/03 16:37:03;;;;;;;12.20;9.63;;;;;;;;;;5114453;28;20027;-53
2022/12/03 16:42:42;;;;;;;17.13;11.00;;;;;;;;;;5100666;28;20481;-56
2022/12/03 16:48:44;;;;;;;11.77;10.20;;;;;;;;;;5069683;28;20035;-53
2022/12/03 16:51:31;;;;;;;11.40;9.27;;;;;;;;;;5115642;28;20027;-55
2022/12/03 16:54:04;;;;;;;17.17;11.80;;;;;;;;;;5121171;28;20514;-56
2022/12/03 16:57:04;;;;;;;16.90;11.50;;;;;;;;;;5122370;28;20462;-52
2022/12/03 17:00:20;;;;;;;12.83;10.90;;;;;;;;;;5112482;28;20035;-55
2022/12/03 17:06:01;;;;;;;14.10;8.17;;;;;;;;;;5099594;28;20046;-53
2022/12/03 17:09:00;;;;;;;11.50;9.40;;;;;;;;;;5117490;28;20020;-54
2022/12/03 17:11:26;;;;;;;9.80;8.80;;;;;;;;;;5117993;28;20036;-54
2022/12/03 17:14:07;;;;;;;8.87;7.97;;;;;;;;;;5097471;28;20028;-52
2022/12/03 17:16:44;;;;;;;;;;;;;;;;;;;;;
2022/12/03 17:25:47;;;;;;;9.63;8.63;;;;;;;;;;5053955;28;20552;-54
2022/12/03 17:28:29;;;;;;;14.27;9.13;;;;;;;;;;5030074;28;20079;-53
2022/12/03 17:31:03;;;;;;;8.53;7.23;;;;;;;;;;5055211;28;20037;-55
2022/12/03 17:34:10;;;;;;;14.97;10.47;;;;;;;;;;5038332;28;20472;-55
2022/12/03 17:36:55;;;;;;;16.90;11.03;;;;;;;;;;4994196;28;20042;-55
2022/12/03 17:39:42;;;;;;;12.67;10.77;;;;;;;;;;5014507;28;20044;-53
2022/12/03 17:42:14;;;;;;;18.70;9.53;;;;;;;;;;5051296;28;20040;-52
2022/12/03 17:48:05;;;;;;;11.37;9.50;;;;;;;;;;5051901;28;20116;-53
2022/12/03 17:54:12;;;;;;;;;;;;;;;;;;;;;
2022/12/03 17:57:07;;;;;;;16.67;11.97;;;;;;;;;;5014249;28;20053;-55
2022/12/03 18:00:17;;;;;;;15.53;10.30;;;;;;;;;;4997593;28;20694;-54
2022/12/03 18:08:57;;;;;;;16.77;11.27;;;;;;;;;;5108474;28;20026;-54
2022/12/03 18:11:57;;;;;;;14.90;12.20;;;;;;;;;;5106395;28;20142;-54
2022/12/03 18:17:41;;;;;;;9.93;8.83;;;;;;;;;;5083831;28;20035;-55
2022/12/03 18:20:28;;;;;;;11.90;10.63;;;;;;;;;;5117242;28;20069;-55
2022/12/03 18:23:05;;;;;;;15.50;10.93;;;;;;;;;;5110000;28;20035;-51
2022/12/03 18:25:40;;;;;;;14.87;10.17;;;;;;;;;;5117092;28;20476;-53
2022/12/03 18:28:33;;;;;;;15.30;11.10;;;;;;;;;;5096994;28;20127;-55
2022/12/03 18:31:40;;;;;;;13.57;10.90;;;;;;;;;;5109249;28;20024;-55
2022/12/03 18:37:33;;;;;;;18.23;9.83;;;;;;;;;;5116768;28;20031;-55
2022/12/03 18:43:25;;;;;;;8.60;6.20;;;;;;;;;;5073598;28;20082;-52
2022/12/03 18:46:07;;;;;;;;;;;;;;;;;;;;;
2022/12/03 18:48:54;;;;;;;13.43;9.80;;;;;;;;;;5073864;28;20094;-54
2022/12/03 18:51:37;;;;;;;15.30;10.07;;;;;;;;;;5051478;28;20127;-53
2022/12/03 18:54:19;;;;;;;13.07;10.50;;;;;;;;;;5055739;28;20563;-56
2022/12/03 18:57:04;;;;;;;12.03;9.03;;;;;;;;;;5074325;28;20608;-52
2022/12/03 19:03:18;;;;;;;15.35;10.85;;;;;;;;;;5033091;28;20150;-55
2022/12/03 19:06:04;;;;;;;13.47;10.43;;;;;;;;;;5033750;28;20053;-54
2022/12/03 19:08:52;;;;;;;12.23;10.93;;;;;;;;;;5034982;28;20468;-54
2022/12/03 19:17:41;;;;;;;12.10;9.60;;;;;;;;;;5081119;28;20067;-54
2022/12/03 19:23:29;;;;;;;16.00;11.70;;;;;;;;;;5104241;28;20031;-55
2022/12/03 19:26:16;;;;;;;13.53;10.23;;;;;;;;;;5097809;28;20362;-56
2022/12/03 19:32:14;;;;;;;;;;;;;;;;;;;;;
2022/12/03 19:34:54;;;;;;;10.37;8.97;;;;;;;;;;5114453;28;20024;-52
2022/12/03 19:40:38;;;;;;;;;;;;;;;;;;;;;
2022/12/03 19:43:23;;;;;;;11.43;10.27;;;;;;;;;;5112800;28;20032;-54
2022/12/03 19:46:08;;;;;;;10.03;8.63;;;;;;;;;;5108802;28;20147;-51
2022/12/03 19:48:56;;;;;;;12.57;10.67;;;;;;;;;;5050587;28;20040;-53
2022/12/03 19:51:29;;;;;;;14.43;9.07;;;;;;;;;;5114863;28;20028;-54
2022/12/03 19:54:08;;;;;;;12.97;10.43;;;;;;;;;;5114636;28;20035;-54
2022/12/03 19:56:46;;;;;;;14.37;9.57;;;;;;;;;;5115479;28;20024;-53
2022/12/03 20:05:23;;;;;;;16.70;8.40;;;;;;;;;;5114542;28;20042;-56
2022/12/03 20:07:56;;;;;;;8.93;7.00;;;;;;;;;;5096184;28;20040;-56
2022/12/03 20:10:37;;;;;;;13.03;10.30;;;;;;;;;;5115447;28;20403;-54
2022/12/03 20:13:27;;;;;;;8.87;7.33;;;;;;;;;;5115054;28;20040;-55
2022/12/03 20:16:12;;;;;;;15.05;8.55;;;;;;;;;;5096034;28;20028;-54
2022/12/03 20:25:16;;;;;;;13.73;9.37;;;;;;;;;;5103822;28;20400;-56
2022/12/03 20:28:26;;;;;;;11.32;9.15;;;;;;;;;;5097977;28;20031;-52
2022/12/03 20:31:12;;;;;;;11.97;8.47;;;;;;;;;;5015781;28;20064;-52
2022/12/03 20:33:41;;;;;;;16.43;11.33;;;;;;;;;;5016846;28;20273;-55
2022/12/03 20:39:58;;;;;;;15.10;9.47;;;;;;;;;;5016330;28;20365;-53
2022/12/03 20:45:42;;;;;;;15.97;9.00;;;;;;;;;;5016266;28;20057;-54
2022/12/03 20:51:08;;;;;;;18.63;11.73;;;;;;;;;;5118698;28;20487;-54
2022/12/03 20:53:59;;;;;;;15.97;10.03;;;;;;;;;;5118855;28;20047;-52
2022/12/03 20:59:58;;;;;;;12.07;9.33;;;;;;;;;;5035636;28;20568;-53
2022/12/03 21:02:46;;;;;;;15.37;9.97;;;;;;;;;;5060456;28;20035;-56
2022/12/03 21:05:26;;;;;;;17.43;10.33;;;;;;;;;;5118223;28;20051;-56
2022/12/03 21:08:07;;;;;;;15.55;10.18;;;;;;;;;;5118562;28;20034;-53
2022/12/03 21:10:43;;;;;;;17.27;11.63;;;;;;;;;;5119144;28;20023;-55
2022/12/03 21:13:27;;;;;;;12.47;9.40;;;;;;;;;;5084384;28;20093;-54
2022/12/03 21:16:15;;;;;;;13.60;10.67;;;;;;;;;;5118423;28;20511;-54
2022/12/03 21:19:19;;;;;;;19.10;11.83;;;;;;;;;;5119051;28;20030;-52
2022/12/03 21:22:05;;;;;;;12.90;8.87;;;;;;;;;;5117557;28;20043;-54
2022/12/03 21:25:12;;;;;;;15.67;10.43;;;;;;;;;;5104851;28;20059;-56
2022/12/03 21:27:49;;;;;;;16.63;11.40;;;;;;;;;;5113285;28;20168;-55
2022/12/03 21:34:01;;;;;;;19.00;15.70;;;;;;;;;;5085418;28;20039;-55
2022/12/03 21:37:08;;;;;;;20.77;14.63;;;;;;;;;;5072469;28;20465;-53
2022/12/03 21:40:05;;;;;;;13.90;9.23;;;;;;;;;;5117316;28;20032;-56
2022/12/03 21:42:52;;;;;;;15.83;11.57;;;;;;;;;;5015107;28;20499;-56
2022/12/03 21:45:30;;;;;;;18.57;12.00;;;;;;;;;;4992304;28;20454;-55
2022/12/03 21:48:09;;;;;;;18.60;13.70;;;;;;;;;;5112243;28;20046;-56
2022/12/03 21:51:14;;;;;;;;;;;;;;;;;;;;;
2022/12/03 21:54:22;;;;;;;17.77;12.47;;;;;;;;;;5078622;28;20098;-56
2022/12/03 21:56:50;;;;;;;16.60;10.77;;;;;;;;;;5112638;28;20057;-56
2022/12/03 21:59:21;;;;;;;16.83;13.57;;;;;;;;;;5112106;28;20128;-56
2022/12/03 22:02:14;;;;;;;15.70;12.57;;;;;;;;;;5130369;28;20020;-56
2022/12/03 22:04:55;;;;;;;19.60;12.10;;;;;;;;;;5126464;28;20047;-56
2022/12/03 22:11:09;;;;;;;18.30;14.87;;;;;;;;;;5112242;28;20077;-54
2022/12/03 22:14:09;;;;;;;;;;;;;;;;;;;;;
2022/12/03 22:17:12;;;;;;;19.87;15.70;;;;;;;;;;5027053;28;20069;-56
2022/12/03 22:25:41;;;;;;;22.97;14.13;;;;;;;;;;5004008;28;20038;-53
2022/12/03 22:28:25;;;;;;;16.40;12.77;;;;;;;;;;5033509;28;20771;-55
2022/12/03 22:31:25;;;;;;;17.00;13.50;;;;;;;;;;5067696;28;20025;-55
2022/12/03 22:34:39;;;;;;;16.80;11.30;;;;;;;;;;5067918;28;20108;-54
2022/12/03 22:37:04;;;;;;;21.17;15.10;;;;;;;;;;5060022;28;20028;-54
2022/12/03 22:39:42;;;;;;;17.60;13.70;;;;;;;;;;5067317;28;20048;-53
2022/12/03 22:42:35;;;;;;;;;;;;;;;;;;;;;
2022/12/03 22:45:29;;;;;;;18.47;12.47;;;;;;;;;;5064332;28;20128;-56
2022/12/03 22:48:36;;;;;;;23.90;15.70;;;;;;;;;;5066307;28;20036;-52
2022/12/03 22:54:00;;;;;;;16.40;11.40;;;;;;;;;;5019418;28;20041;-54
2022/12/03 22:59:38;;;;;;;17.33;12.90;;;;;;;;;;5129736;28;20046;-55
2022/12/03 23:02:09;;;;;;;14.40;11.43;;;;;;;;;;5111604;28;20034;-52
2022/12/03 23:05:05;;;;;;;18.47;15.63;;;;;;;;;;5111002;28;20050;-52
2022/12/03 23:07:34;;;;;;;15.57;12.90;;;;;;;;;;5129447;28;20354;-52
2022/12/03 23:10:02;;;;;;;24.63;16.77;;;;;;;;;;5110640;28;20035;-52
2022/12/03 23:12:34;;;;;;;20.30;13.63;;;;;;;;;;5128815;28;20554;-52
2022/12/03 23:15:18;;;;;;;21.40;14.13;;;;;;;;;;5111151;28;20043;-54
2022/12/03 23:21:11;;;;;;;15.98;11.80;;;;;;;;;;5129009;28;20049;-53
2022/12/03 23:27:15;;;;;;;17.87;12.37;;;;;;;;;;5097034;28;20035;-54
2022/12/03 23:30:07;;;;;;;17.10;13.67;;;;;;;;;;5102045;28;20392;-51
2022/12/03 23:32:39;;;;;;;20.97;12.90;;;;;;;;;;5129171;28;20036;-53
2022/12/03 23:35:20;;;;;;;18.43;15.17;;;;;;;;;;5128754;28;20053;-54
2022/12/03 23:37:52;;;;;;;17.23;13.43;;;;;;;;;;5123243;28;20046;-54
2022/12/03 23:44:32;;;;;;;;;;;;;;;;;;;;;
2022/12/03 23:47:14;;;;;;;20.43;11.27;;;;;;;;;;4999406;28;20068;-56
2022/12/03 23:49:52;;;;;;;15.10;12.00;;;;;;;;;;5028803;28;20590;-49